Time;durP1;ratioP1;P1;durP2;ratioP2;P2;SDS_P1;SDS_P2;PMS_P1;PMS_P2;Temp;Humidity;BMP_temperature;BMP_pressure;BME280_temperature;BME280_humidity;BME280_pressure;Samples;Min_cycle;Max_cycle;Signal;HPM_P1;HPM_P2
2022/08/09 00:00:55;;;;;;;1.30;1.15;;;13.20;99.90;;;;;;5052927;28;20056;-66
2022/08/09 00:03:20;;;;;;;1.08;0.98;;;13.10;99.90;;;;;;5054546;28;20040;-66
2022/08/09 00:05:46;;;;;;;3.35;1.67;;;13.00;99.90;;;;;;5068660;28;20065;-66
2022/08/09 00:08:11;;;;;;;3.38;2.45;;;13.20;99.90;;;;;;5054178;28;20032;-66
2022/08/09 00:10:38;;;;;;;2.75;2.10;;;13.00;99.90;;;;;;5056746;28;20047;-66
2022/08/09 00:13:08;;;;;;;3.83;2.15;;;13.30;99.90;;;;;;5065250;28;20068;-66
2022/08/09 00:15:34;;;;;;;3.25;2.38;;;13.30;99.90;;;;;;5052770;28;20041;-66
2022/08/09 00:17:59;;;;;;;2.35;2.15;;;13.30;99.90;;;;;;5060315;28;20396;-66
2022/08/09 00:20:25;;;;;;;2.35;2.15;;;13.10;99.90;;;;;;5074070;28;20443;-66
2022/08/09 00:22:51;;;;;;;3.00;2.45;;;12.90;99.90;;;;;;5054584;28;20037;-66
2022/08/09 00:25:16;;;;;;;2.63;2.42;;;12.90;99.90;;;;;;5064118;28;20136;-66
2022/08/09 00:27:42;;;;;;;3.17;2.88;;;13.00;99.90;;;;;;5073898;28;20064;-66
2022/08/09 00:30:08;;;;;;;3.42;2.92;;;12.90;99.90;;;;;;5063753;28;20045;-66
2022/08/09 00:32:33;;;;;;;4.43;2.75;;;13.10;99.90;;;;;;5053708;28;20037;-66
2022/08/09 00:34:59;;;;;;;2.85;2.65;;;13.10;99.90;;;;;;5053843;28;20159;-66
2022/08/09 00:37:25;;;;;;;3.88;3.20;;;13.00;99.90;;;;;;5035899;28;20047;-66
2022/08/09 00:39:51;;;;;;;3.10;2.80;;;13.00;99.90;;;;;;5072733;28;20041;-66
2022/08/09 00:42:17;;;;;;;4.20;2.70;;;13.00;99.90;;;;;;5062280;28;20044;-66
2022/08/09 00:44:42;;;;;;;1.92;1.65;;;12.60;99.90;;;;;;5052379;28;20048;-66
2022/08/09 00:47:08;;;;;;;3.22;1.13;;;12.70;99.90;;;;;;5053629;28;20108;-66
2022/08/09 00:49:34;;;;;;;1.15;0.98;;;12.70;99.90;;;;;;5068838;28;20040;-66
2022/08/09 00:52:00;;;;;;;0.90;0.80;;;12.40;99.90;;;;;;5066203;28;20083;-66
2022/08/09 00:54:26;;;;;;;0.90;0.80;;;;;;;;;;5053245;28;20032;-66
2022/08/09 00:56:51;;;;;;;1.17;1.08;;;12.50;99.90;;;;;;5057268;28;20415;-66
2022/08/09 00:59:17;;;;;;;7.90;1.90;;;12.40;99.90;;;;;;5065589;28;20064;-66
2022/08/09 01:01:44;;;;;;;4.22;2.33;;;12.30;99.90;;;;;;5053365;28;20080;-66
2022/08/09 01:04:24;;;;;;;4.38;2.00;;;12.10;99.90;;;;;;5053508;28;20068;-66
2022/08/09 01:07:15;;;;;;;10.93;2.55;;;12.20;99.90;;;;;;5066954;28;20047;-66
2022/08/09 01:10:03;;;;;;;5.90;1.80;;;12.20;99.90;;;;;;5051616;28;20068;-66
2022/08/09 01:12:50;;;;;;;4.10;2.10;;;12.00;99.90;;;;;;5067564;28;20506;-66
2022/08/09 01:15:24;;;;;;;3.17;1.20;;;12.20;99.90;;;;;;5052999;28;20063;-66
2022/08/09 01:18:01;;;;;;;1.87;1.67;;;12.30;99.90;;;;;;5058159;28;20124;-66
2022/08/09 01:20:59;;;;;;;1.92;1.73;;;12.40;99.90;;;;;;5071564;28;20055;-66
2022/08/09 01:23:58;;;;;;;2.90;2.60;;;12.60;99.90;;;;;;5061992;28;20044;-66
2022/08/09 01:26:45;;;;;;;2.38;1.67;;;12.50;99.90;;;;;;5053072;28;20398;-66
2022/08/09 01:29:13;;;;;;;2.10;1.70;;;;;;;;;;5068664;28;20033;-66
2022/08/09 01:31:42;;;;;;;24.88;3.80;;;12.50;99.90;;;;;;5063542;28;20041;-66
2022/08/09 01:34:11;;;;;;;83.45;6.20;;;12.50;99.90;;;;;;5052938;28;20450;-66
2022/08/09 01:36:39;;;;;;;9.20;4.60;;;12.40;99.90;;;;;;5072642;28;20074;-66
2022/08/09 01:39:05;;;;;;;6.18;3.88;;;12.10;99.90;;;;;;5051927;28;20514;-66
2022/08/09 01:41:34;;;;;;;16.80;3.55;;;12.10;99.90;;;;;;5052508;28;20053;-66
2022/08/09 01:44:02;;;;;;;8.15;3.28;;;11.80;99.90;;;;;;5046445;28;20087;-66
2022/08/09 01:46:38;;;;;;;19.67;2.53;;;11.70;99.90;;;;;;5039411;28;20510;-66
2022/08/09 01:49:11;;;;;;;5.55;1.30;;;11.70;99.90;;;;;;5044356;28;20087;-66
2022/08/09 01:51:45;;;;;;;8.43;1.00;;;11.60;99.90;;;;;;5050308;28;20037;-66
2022/08/09 01:54:12;;;;;;;5.73;0.90;;;11.60;99.90;;;;;;5051518;28;20032;-66
2022/08/09 01:56:41;;;;;;;14.07;1.10;;;11.60;99.90;;;;;;5050900;28;20041;-66
2022/08/09 01:59:10;;;;;;;4.70;1.00;;;11.60;99.90;;;;;;5051989;28;20567;-66
2022/08/09 02:01:38;;;;;;;12.82;1.70;;;11.60;99.90;;;;;;5051709;28;20052;-66
2022/08/09 02:04:05;;;;;;;18.30;2.15;;;11.50;99.90;;;;;;5052471;28;20044;-66
2022/08/09 02:09:19;;;;;;;7.47;1.60;;;11.30;99.90;;;;;;5041903;28;20053;-66
2022/08/09 02:11:45;;;;;;;6.38;1.90;;;11.20;99.90;;;;;;5046338;28;20510;-66
2022/08/09 02:14:13;;;;;;;34.65;3.50;;;11.20;99.90;;;;;;5050700;28;20559;-66
2022/08/09 02:16:40;;;;;;;20.90;3.10;;;11.20;99.90;;;;;;5053724;28;20088;-66
2022/08/09 02:19:06;;;;;;;11.68;3.08;;;11.20;99.90;;;;;;5052327;28;20128;-66
2022/08/09 02:21:38;;;;;;;2.25;2.05;;;11.20;99.90;;;;;;5050918;28;20041;-66
2022/08/09 02:24:08;;;;;;;10.23;2.75;;;11.40;99.90;;;;;;5050741;28;20491;-66
2022/08/09 02:26:35;;;;;;;4.57;2.22;;;11.50;99.90;;;;;;5050476;28;20041;-66
2022/08/09 02:29:35;;;;;;;2.40;2.20;;;11.50;99.90;;;;;;5052089;28;20041;-66
2022/08/09 02:32:04;;;;;;;2.20;1.90;;;11.60;99.90;;;;;;5045262;28;20056;-66
2022/08/09 02:34:32;;;;;;;1.90;1.65;;;11.60;99.90;;;;;;5050987;28;20124;-66
2022/08/09 02:37:01;;;;;;;2.40;2.20;;;11.60;99.90;;;;;;5050247;28;20049;-66
2022/08/09 02:39:31;;;;;;;2.42;2.20;;;11.80;99.90;;;;;;5050649;28;20096;-66
2022/08/09 02:42:00;;;;;;;2.65;2.45;;;11.80;99.90;;;;;;5051007;28;20419;-66
2022/08/09 02:44:39;;;;;;;2.30;2.10;;;11.90;99.90;;;;;;5046086;28;20033;-66
2022/08/09 02:47:10;;;;;;;2.78;2.40;;;12.00;99.90;;;;;;5046173;28;20071;-66
2022/08/09 02:49:40;;;;;;;2.75;2.38;;;12.00;99.90;;;;;;5033416;28;20061;-66
2022/08/09 02:52:11;;;;;;;3.08;2.78;;;11.90;99.90;;;;;;5042783;28;20398;-66
2022/08/09 02:54:38;;;;;;;2.50;2.30;;;11.90;99.90;;;;;;5051992;28;20387;-66
2022/08/09 02:57:05;;;;;;;2.58;2.33;;;11.90;99.90;;;;;;5034175;28;20047;-66
2022/08/09 02:59:34;;;;;;;2.72;2.45;;;11.80;99.90;;;;;;5048112;28;20049;-66
2022/08/09 03:02:01;;;;;;;2.30;2.05;;;11.70;99.90;;;;;;5039659;28;20067;-66
2022/08/09 03:04:30;;;;;;;2.83;2.40;;;11.70;99.90;;;;;;5041572;28;20037;-66
2022/08/09 03:06:58;;;;;;;2.38;2.17;;;11.70;99.90;;;;;;5047486;28;20116;-66
2022/08/09 03:09:24;;;;;;;4.07;2.60;;;11.70;99.90;;;;;;5047457;28;20397;-66
2022/08/09 03:11:51;;;;;;;2.90;2.67;;;11.70;99.90;;;;;;5055343;28;20103;-66
2022/08/09 03:14:19;;;;;;;2.90;2.63;;;11.60;99.90;;;;;;5055325;28;20045;-66
2022/08/09 03:16:45;;;;;;;3.33;2.50;;;11.70;99.90;;;;;;5051858;28;20045;-66
2022/08/09 03:19:11;;;;;;;4.00;3.03;;;11.70;99.90;;;;;;5043604;28;20503;-66
2022/08/09 03:21:37;;;;;;;3.38;3.08;;;11.70;99.90;;;;;;5039705;28;20041;-66
2022/08/09 03:24:03;;;;;;;77.90;5.25;;;11.70;99.90;;;;;;5035387;28;20052;-66
2022/08/09 03:26:30;;;;;;;4.03;3.10;;;11.80;99.90;;;;;;5049055;28;20115;-66
2022/08/09 03:28:58;;;;;;;78.13;5.68;;;11.60;99.90;;;;;;5054911;28;20533;-66
2022/08/09 03:31:25;;;;;;;107.80;6.82;;;11.60;99.90;;;;;;5042461;28;20049;-66
2022/08/09 03:33:52;;;;;;;3.15;2.70;;;11.50;99.90;;;;;;5049020;28;20035;-66
2022/08/09 03:36:18;;;;;;;21.85;3.97;;;11.50;99.90;;;;;;5045788;28;20443;-66
2022/08/09 03:38:43;;;;;;;3.03;2.70;;;11.30;99.90;;;;;;5041079;28;20068;-66
2022/08/09 03:41:13;;;;;;;4.80;3.38;;;11.60;99.90;;;;;;5028200;28;20087;-66
2022/08/09 03:43:39;;;;;;;4.45;2.42;;;11.40;99.90;;;;;;5048718;28;20499;-66
2022/08/09 03:46:05;;;;;;;2.90;2.40;;;11.60;99.90;;;;;;5037606;28;20037;-66
2022/08/09 03:48:32;;;;;;;23.42;2.80;;;11.60;99.90;;;;;;5042668;28;20047;-66
2022/08/09 03:50:59;;;;;;;5.40;2.08;;;11.50;99.90;;;;;;5040479;28;20399;-66
2022/08/09 03:53:26;;;;;;;23.52;3.13;;;11.40;99.90;;;;;;5053795;28;20040;-66
2022/08/09 03:55:52;;;;;;;2.85;2.42;;;11.50;99.90;;;;;;5054806;28;20077;-66
2022/08/09 03:58:18;;;;;;;3.85;2.42;;;11.30;99.90;;;;;;5034348;28;20463;-66
2022/08/09 04:00:45;;;;;;;3.60;3.08;;;11.50;99.90;;;;;;5044593;28;20063;-66
2022/08/09 04:03:11;;;;;;;2.70;2.33;;;11.70;99.90;;;;;;5054295;28;20037;-66
2022/08/09 04:05:37;;;;;;;3.03;2.70;;;11.50;99.90;;;;;;5043641;28;20507;-66
2022/08/09 04:08:03;;;;;;;2.97;2.38;;;11.60;99.90;;;;;;5035241;28;20079;-66
2022/08/09 04:10:29;;;;;;;3.72;3.10;;;11.60;99.90;;;;;;5054155;28;20065;-66
2022/08/09 04:12:54;;;;;;;4.32;2.85;;;11.60;99.90;;;;;;5052772;28;20079;-66
2022/08/09 04:15:23;;;;;;;3.00;2.55;;;11.70;99.90;;;;;;5035354;28;20452;-66
2022/08/09 04:17:49;;;;;;;3.22;2.60;;;11.60;99.90;;;;;;5040565;28;20052;-66
2022/08/09 04:20:16;;;;;;;4.18;3.47;;;11.50;99.90;;;;;;5052361;28;20083;-66
2022/08/09 04:22:43;;;;;;;3.92;3.20;;;11.40;99.90;;;;;;5052942;28;20047;-66
2022/08/09 04:25:10;;;;;;;3.72;3.35;;;11.50;99.90;;;;;;5053950;28;20084;-66
2022/08/09 04:27:40;;;;;;;4.30;2.97;;;;;;;;;;5044919;28;20037;-66
2022/08/09 04:30:18;;;;;;;10.07;3.60;;;11.50;99.90;;;;;;5048088;28;20087;-66
2022/08/09 04:32:44;;;;;;;3.50;3.20;;;11.30;99.90;;;;;;5043299;28;20051;-66
2022/08/09 04:35:10;;;;;;;4.10;3.53;;;11.40;99.90;;;;;;5037748;28;20049;-66
2022/08/09 04:37:37;;;;;;;4.60;3.53;;;11.60;99.90;;;;;;5023155;28;20045;-66
2022/08/09 04:40:04;;;;;;;4.25;3.45;;;11.50;99.90;;;;;;5053426;28;20592;-66
2022/08/09 04:42:30;;;;;;;5.78;4.45;;;11.70;99.90;;;;;;5053724;28;20497;-66
2022/08/09 04:44:57;;;;;;;5.35;3.65;;;11.60;99.90;;;;;;5053994;28;20033;-66
2022/08/09 04:47:27;;;;;;;4.43;3.40;;;11.70;99.90;;;;;;5053543;28;20123;-66
2022/08/09 04:49:53;;;;;;;3.85;3.25;;;11.60;99.90;;;;;;5045969;28;20045;-66
2022/08/09 04:52:21;;;;;;;7.53;3.67;;;11.70;99.90;;;;;;5045642;28;20520;-66
2022/08/09 04:54:47;;;;;;;4.47;3.30;;;;;;;;;;5051928;28;20044;-66
2022/08/09 04:57:12;;;;;;;4.90;3.75;;;11.80;99.90;;;;;;5053235;28;20041;-66
2022/08/09 04:59:38;;;;;;;4.13;3.42;;;11.80;99.90;;;;;;5052559;28;20060;-66
2022/08/09 05:02:04;;;;;;;4.47;2.65;;;11.80;99.90;;;;;;5053408;28;20072;-66
2022/08/09 05:04:30;;;;;;;6.85;3.05;;;11.80;99.90;;;;;;5053211;28;20047;-66
2022/08/09 05:06:55;;;;;;;3.10;2.78;;;11.90;99.90;;;;;;5053019;28;20071;-66
2022/08/09 05:09:21;;;;;;;6.60;3.10;;;11.80;99.90;;;;;;5053027;28;20029;-66
2022/08/09 05:11:46;;;;;;;6.07;3.17;;;11.90;99.90;;;;;;5038952;28;20033;-66
2022/08/09 05:14:12;;;;;;;5.47;2.75;;;11.90;99.90;;;;;;5053138;28;20116;-66
2022/08/09 05:16:38;;;;;;;2.90;2.50;;;12.00;99.90;;;;;;5052862;28;20044;-66
2022/08/09 05:19:04;;;;;;;12.18;2.92;;;12.00;99.90;;;;;;5053223;28;20033;-66
2022/08/09 05:21:30;;;;;;;7.57;3.30;;;12.20;99.90;;;;;;5037202;28;20045;-66
2022/08/09 05:23:55;;;;;;;18.52;4.32;;;12.10;99.90;;;;;;5046201;28;20087;-66
2022/08/09 05:26:21;;;;;;;4.28;3.10;;;12.00;99.90;;;;;;5043220;28;20117;-66
2022/08/09 05:28:47;;;;;;;3.38;2.80;;;12.10;99.90;;;;;;5048393;28;20092;-66
2022/08/09 05:31:12;;;;;;;3.90;3.20;;;12.10;99.90;;;;;;5042631;28;20040;-66
2022/08/09 05:33:38;;;;;;;4.28;3.15;;;12.20;99.90;;;;;;5038874;28;20577;-66
2022/08/09 05:36:04;;;;;;;5.22;3.85;;;12.40;99.90;;;;;;5052535;28;20045;-66
2022/08/09 05:38:30;;;;;;;9.13;4.55;;;12.50;99.90;;;;;;5052013;28;20403;-66
2022/08/09 05:40:56;;;;;;;7.47;3.20;;;12.60;99.90;;;;;;5039183;28;20037;-66
2022/08/09 05:43:22;;;;;;;6.25;3.33;;;12.70;99.90;;;;;;5051418;28;20043;-66
2022/08/09 05:45:48;;;;;;;5.70;3.30;;;12.90;99.90;;;;;;5051054;28;20044;-66
2022/08/09 05:48:13;;;;;;;3.22;2.83;;;13.40;99.90;;;;;;5052435;28;20064;-66
2022/08/09 05:50:42;;;;;;;6.35;3.65;;;14.50;99.90;;;;;;5039894;28;20578;-66
2022/08/09 05:53:09;;;;;;;4.25;3.05;;;15.10;99.90;;;;;;5036340;28;20080;-66
2022/08/09 05:55:34;;;;;;;5.22;2.95;;;15.30;99.90;;;;;;5052186;28;20037;-66
2022/08/09 05:58:00;;;;;;;3.65;2.22;;;16.00;99.90;;;;;;5036792;28;20059;-66
2022/08/09 06:00:27;;;;;;;3.97;2.63;;;17.60;99.90;;;;;;5052505;28;20045;-66
2022/08/09 06:02:55;;;;;;;5.20;2.30;;;17.80;99.90;;;;;;5052072;28;20043;-66
2022/08/09 06:05:21;;;;;;;3.15;2.33;;;18.40;99.90;;;;;;5051131;28;20141;-66
2022/08/09 06:07:46;;;;;;;4.45;2.30;;;19.30;99.90;;;;;;5052344;28;20522;-66
2022/08/09 06:10:14;;;;;;;4.55;2.53;;;19.70;99.90;;;;;;5051845;28;20124;-66
2022/08/09 06:12:41;;;;;;;4.32;2.35;;;20.40;99.90;;;;;;5052168;28;20453;-66
2022/08/09 06:15:07;;;;;;;3.13;2.13;;;21.10;99.90;;;;;;5048099;28;20061;-66
2022/08/09 06:17:32;;;;;;;3.70;2.60;;;21.20;99.90;;;;;;5032327;28;20072;-66
2022/08/09 06:19:58;;;;;;;4.25;2.63;;;21.90;99.90;;;;;;5033847;28;20038;-66
2022/08/09 06:22:23;;;;;;;3.42;2.17;;;22.60;99.90;;;;;;5042692;28;20082;-66
2022/08/09 06:24:49;;;;;;;2.90;1.45;;;22.90;99.90;;;;;;5033481;28;20049;-67
2022/08/09 06:27:15;;;;;;;3.63;1.55;;;23.70;99.90;;;;;;5032120;28;20041;-66
2022/08/09 06:29:40;;;;;;;2.35;1.80;;;24.00;99.90;;;;;;5042804;28;20048;-67
2022/08/09 06:32:06;;;;;;;2.55;1.60;;;24.40;99.90;;;;;;5050768;28;20072;-67
2022/08/09 06:34:31;;;;;;;3.13;1.92;;;24.60;99.90;;;;;;5050645;28;20045;-67
2022/08/09 06:36:57;;;;;;;3.13;1.95;;;25.20;99.90;;;;;;5053328;28;20033;-67
2022/08/09 06:39:23;;;;;;;3.85;1.85;;;25.40;99.90;;;;;;5056108;28;20068;-67
2022/08/09 06:41:48;;;;;;;2.92;1.88;;;25.50;99.90;;;;;;5042044;28;20038;-67
2022/08/09 06:44:14;;;;;;;3.45;1.83;;;26.80;99.90;;;;;;5054562;28;20040;-67
2022/08/09 06:46:40;;;;;;;5.45;2.35;;;26.40;99.90;;;;;;5055683;28;20040;-67
2022/08/09 06:49:05;;;;;;;3.63;2.22;;;26.90;99.90;;;;;;5055953;28;20139;-67
2022/08/09 06:51:34;;;;;;;3.50;2.08;;;27.20;99.90;;;;;;5041491;28;20576;-67
2022/08/09 06:53:59;;;;;;;5.10;2.33;;;27.20;99.90;;;;;;5055985;28;20041;-67
2022/08/09 06:56:25;;;;;;;3.58;1.90;;;27.70;99.90;;;;;;5054489;28;20055;-67
2022/08/09 06:58:50;;;;;;;3.75;1.73;;;27.90;99.90;;;;;;5045483;28;20125;-67
2022/08/09 07:01:16;;;;;;;5.13;2.83;;;30.00;99.90;;;;;;5050894;28;20075;-67
2022/08/09 07:03:41;;;;;;;4.53;2.00;;;30.40;99.90;;;;;;5043536;28;20112;-67
2022/08/09 07:06:07;;;;;;;4.07;2.08;;;29.40;99.90;;;;;;5054122;28;20080;-67
2022/08/09 07:08:33;;;;;;;6.65;2.17;;;27.70;99.90;;;;;;5040372;28;20036;-67
2022/08/09 07:11:01;;;;;;;4.88;2.40;;;27.00;99.90;;;;;;5054061;28;20095;-66
2022/08/09 07:13:27;;;;;;;4.63;2.20;;;25.50;99.90;;;;;;5055324;28;20501;-66
2022/08/09 07:15:52;;;;;;;4.18;1.90;;;24.70;99.90;;;;;;5054310;28;20045;-66
2022/08/09 07:18:18;;;;;;;5.47;2.53;;;25.60;99.90;;;;;;5055062;28;20043;-66
2022/08/09 07:20:44;;;;;;;6.32;2.78;;;23.60;99.90;;;;;;5046975;28;20044;-66
2022/08/09 07:23:10;;;;;;;5.05;2.75;;;23.10;99.90;;;;;;5048171;28;20040;-66
2022/08/09 07:25:36;;;;;;;4.75;2.42;;;22.70;99.90;;;;;;5055005;28;20029;-66
2022/08/09 07:28:01;;;;;;;2.67;1.70;;;22.20;99.90;;;;;;5041765;28;20098;-66
2022/08/09 07:30:27;;;;;;;4.90;2.05;;;22.10;99.90;;;;;;5053385;28;20037;-66
2022/08/09 07:32:52;;;;;;;5.18;2.30;;;21.70;99.90;;;;;;5053477;28;20045;-66
2022/08/09 07:35:18;;;;;;;5.53;2.58;;;21.30;99.90;;;;;;5038736;28;20450;-66
2022/08/09 07:37:44;;;;;;;5.28;1.40;;;21.20;99.90;;;;;;5042062;28;20049;-66
2022/08/09 07:40:11;;;;;;;3.58;2.03;;;21.10;99.90;;;;;;5039188;28;20071;-66
2022/08/09 07:42:51;;;;;;;3.25;1.33;;;21.10;99.90;;;;;;5040405;28;20041;-66
2022/08/09 07:45:24;;;;;;;3.72;1.50;;;20.60;99.90;;;;;;5054416;28;20044;-66
2022/08/09 07:47:50;;;;;;;5.07;1.60;;;20.70;99.90;;;;;;5053691;28;20032;-66
2022/08/09 07:50:16;;;;;;;3.85;1.48;;;20.60;99.90;;;;;;5043620;28;20514;-66
2022/08/09 07:52:41;;;;;;;4.97;1.08;;;20.60;99.90;;;;;;5035876;28;20045;-66
2022/08/09 07:55:07;;;;;;;3.38;0.90;;;20.30;99.90;;;;;;5047337;28;20043;-66
2022/08/09 07:57:33;;;;;;;1.05;0.70;;;20.60;99.90;;;;;;5034507;28;20045;-66
2022/08/09 07:59:59;;;;;;;2.13;1.00;;;20.60;99.90;;;;;;5053516;28;20580;-66
2022/08/09 08:02:25;;;;;;;1.85;1.00;;;20.50;99.90;;;;;;5042818;28;20060;-66
2022/08/09 08:04:50;;;;;;;2.25;0.50;;;20.60;99.90;;;;;;5050679;28;20120;-66
2022/08/09 08:07:16;;;;;;;1.25;0.40;;;20.50;99.90;;;;;;5036324;28;20060;-66
2022/08/09 08:09:41;;;;;;;2.83;1.05;;;20.50;99.90;;;;;;5052927;28;20117;-66
2022/08/09 08:12:07;;;;;;;2.90;0.30;;;20.50;99.90;;;;;;5054363;28;20044;-66
2022/08/09 08:14:32;;;;;;;1.25;0.38;;;20.40;99.90;;;;;;5054049;28;20079;-66
2022/08/09 08:16:58;;;;;;;1.08;0.68;;;20.40;99.90;;;;;;5054019;28;20035;-66
2022/08/09 08:19:23;;;;;;;1.77;0.80;;;20.60;99.90;;;;;;5054377;28;20072;-66
2022/08/09 08:21:51;;;;;;;2.75;0.68;;;20.60;99.90;;;;;;5052527;28;20041;-66
2022/08/09 08:24:17;;;;;;;1.80;0.40;;;20.80;99.90;;;;;;5052773;28;20049;-66
2022/08/09 08:26:42;;;;;;;0.70;0.40;;;20.90;99.90;;;;;;5052509;28;20037;-66
2022/08/09 08:29:08;;;;;;;0.73;0.43;;;20.60;99.90;;;;;;5034138;28;20139;-66
2022/08/09 08:31:33;;;;;;;0.95;0.30;;;20.70;99.90;;;;;;5052686;28;20128;-66
2022/08/09 08:33:59;;;;;;;2.08;0.40;;;20.70;99.90;;;;;;5053884;28;20036;-66
2022/08/09 08:36:24;;;;;;;3.58;0.70;;;20.80;99.90;;;;;;5052715;28;20116;-66
2022/08/09 08:38:50;;;;;;;1.98;0.50;;;20.80;99.90;;;;;;5053906;28;20033;-66
2022/08/09 08:41:16;;;;;;;1.55;0.60;;;20.70;99.90;;;;;;5052237;28;20060;-66
2022/08/09 08:43:42;;;;;;;1.33;0.47;;;20.90;99.90;;;;;;5046956;28;20112;-66
2022/08/09 08:46:10;;;;;;;1.25;0.68;;;20.90;99.90;;;;;;5039242;28;20391;-66
2022/08/09 08:48:35;;;;;;;4.03;1.02;;;20.90;99.90;;;;;;5041907;28;20112;-66
2022/08/09 08:51:02;;;;;;;4.32;0.60;;;21.10;99.90;;;;;;5056267;28;20091;-66
2022/08/09 08:53:29;;;;;;;1.27;0.52;;;22.20;99.90;;;;;;5055391;28;20125;-67
2022/08/09 08:55:54;;;;;;;1.38;0.43;;;21.00;99.90;;;;;;5039040;28;20041;-66
2022/08/09 08:58:22;;;;;;;1.80;0.40;;;21.10;99.90;;;;;;5039468;28;20052;-67
2022/08/09 09:00:48;;;;;;;1.88;0.40;;;21.30;99.90;;;;;;5036516;28;20057;-66
2022/08/09 09:03:15;;;;;;;1.25;0.40;;;21.50;99.90;;;;;;5039066;28;20041;-67
2022/08/09 09:05:41;;;;;;;1.70;0.30;;;21.20;99.90;;;;;;5034108;28;20047;-67
2022/08/09 09:08:09;;;;;;;1.00;0.40;;;21.30;99.90;;;;;;5035866;28;20053;-67
2022/08/09 09:10:36;;;;;;;1.00;0.40;;;21.40;99.90;;;;;;5024045;28;20060;-67
2022/08/09 09:13:02;;;;;;;0.65;0.30;;;21.60;99.90;;;;;;5055926;28;20041;-66
2022/08/09 09:15:28;;;;;;;0.73;0.30;;;21.70;99.90;;;;;;5057039;28;20380;-66
2022/08/09 09:17:53;;;;;;;2.72;0.40;;;21.60;99.90;;;;;;5053577;28;20037;-66
2022/08/09 09:20:19;;;;;;;2.58;0.40;;;22.90;99.90;;;;;;5053810;28;20044;-66
2022/08/09 09:22:53;;;;;;;1.52;0.50;;;21.80;99.90;;;;;;5054671;28;20040;-66
2022/08/09 09:25:35;;;;;;;1.20;0.40;;;21.80;99.90;;;;;;5055268;28;20029;-66
2022/08/09 09:28:03;;;;;;;3.13;0.40;;;22.00;99.90;;;;;;5046673;28;20072;-67
2022/08/09 09:30:29;;;;;;;1.08;0.47;;;21.80;99.90;;;;;;5052390;28;20493;-67
2022/08/09 09:33:05;;;;;;;3.33;0.60;;;22.00;99.90;;;;;;5052878;28;20037;-66
2022/08/09 09:35:31;;;;;;;0.73;0.40;;;22.10;99.90;;;;;;5051342;28;20040;-66
2022/08/09 09:37:58;;;;;;;1.13;0.40;;;22.20;99.90;;;;;;5053106;28;20033;-66
2022/08/09 09:40:44;;;;;;;1.90;0.40;;;22.40;99.90;;;;;;5053186;28;20049;-66
2022/08/09 09:43:18;;;;;;;1.30;0.30;;;22.20;99.90;;;;;;5040963;28;20395;-66
2022/08/09 09:45:49;;;;;;;1.27;0.40;;;24.20;99.90;;;;;;5040267;28;20624;-66
2022/08/09 09:48:15;;;;;;;1.70;0.52;;;22.10;99.90;;;;;;5039324;28;20040;-66
2022/08/09 09:50:43;;;;;;;1.80;0.60;;;22.30;99.90;;;;;;5050643;28;20045;-67
2022/08/09 09:53:15;;;;;;;1.73;0.60;;;22.20;99.90;;;;;;5049187;28;20037;-67
2022/08/09 09:55:52;;;;;;;2.60;0.40;;;22.50;99.90;;;;;;5037005;28;20045;-66
2022/08/09 09:58:18;;;;;;;1.95;0.50;;;22.30;99.90;;;;;;5048303;28;20072;-66
2022/08/09 10:00:55;;;;;;;1.33;0.40;;;22.20;99.90;;;;;;5037228;28;20050;-67
2022/08/09 10:03:37;;;;;;;1.52;0.50;;;22.10;99.90;;;;;;5043393;28;20041;-67
2022/08/09 10:06:03;;;;;;;5.97;1.48;;;22.00;99.90;;;;;;5025899;28;20049;-66
2022/08/09 10:08:29;;;;;;;0.98;0.38;;;22.20;99.90;;;;;;5050217;28;20428;-66
2022/08/09 10:10:54;;;;;;;1.30;0.35;;;22.10;99.90;;;;;;5037097;28;20044;-66
2022/08/09 10:13:20;;;;;;;1.15;0.30;;;22.10;99.90;;;;;;5047087;28;20434;-66
2022/08/09 10:15:50;;;;;;;2.95;0.50;;;22.30;99.90;;;;;;5022913;28;20051;-66
2022/08/09 10:18:16;;;;;;;1.00;0.40;;;22.50;99.90;;;;;;5032260;28;20033;-66
2022/08/09 10:20:43;;;;;;;1.63;0.30;;;22.50;99.90;;;;;;5050303;28;20091;-67
2022/08/09 10:23:26;;;;;;;1.70;0.40;;;22.40;99.90;;;;;;5049473;28;20450;-66
2022/08/09 10:25:52;;;;;;;0.55;0.28;;;22.80;99.90;;;;;;5038729;28;20506;-66
2022/08/09 10:28:18;;;;;;;1.30;0.40;;;22.70;99.90;;;;;;5048332;28;20041;-66
2022/08/09 10:30:44;;;;;;;0.95;0.30;;;22.70;99.90;;;;;;5030161;28;20466;-66
2022/08/09 10:33:10;;;;;;;0.68;0.30;;;22.80;99.90;;;;;;5042740;28;20076;-66
2022/08/09 10:35:37;;;;;;;0.70;0.20;;;22.80;99.90;;;;;;5034620;28;20037;-66
2022/08/09 10:38:04;;;;;;;0.82;0.30;;;22.60;99.90;;;;;;5031945;28;20580;-66
2022/08/09 10:40:30;;;;;;;0.85;0.50;;;22.60;99.90;;;;;;5034323;28;20041;-66
2022/08/09 10:42:56;;;;;;;1.67;0.20;;;22.80;99.90;;;;;;5039808;28;20045;-66
2022/08/09 10:45:22;;;;;;;0.57;0.20;;;23.00;99.90;;;;;;5044661;28;20090;-66
2022/08/09 10:48:06;;;;;;;1.75;0.82;;;23.00;99.90;;;;;;5047865;28;20041;-66
2022/08/09 10:53:37;;;;;;;0.77;0.30;;;23.00;99.90;;;;;;5036313;28;20041;-66
2022/08/09 10:56:22;;;;;;;0.43;0.30;;;23.10;99.90;;;;;;5034322;28;20068;-66
2022/08/09 10:58:49;;;;;;;0.60;0.20;;;23.10;99.90;;;;;;5039068;28;20049;-66
2022/08/09 11:01:30;;;;;;;0.40;0.20;;;23.00;99.90;;;;;;5027976;28;20057;-66
2022/08/09 11:04:11;;;;;;;1.05;0.20;;;23.20;99.90;;;;;;5038662;28;20037;-66
2022/08/09 11:06:38;;;;;;;1.55;0.65;;;23.10;99.90;;;;;;5049329;28;20116;-67
2022/08/09 11:09:08;;;;;;;3.00;0.40;;;23.40;99.90;;;;;;5048534;28;20056;-66
2022/08/09 11:12:03;;;;;;;2.00;0.30;;;23.30;99.90;;;;;;5032050;28;20079;-66
2022/08/09 11:14:33;;;;;;;0.50;0.20;;;23.40;99.90;;;;;;5028303;28;20362;-66
2022/08/09 11:16:59;;;;;;;1.15;0.30;;;23.40;99.90;;;;;;5035110;28;20072;-67
2022/08/09 11:20:00;;;;;;;0.25;0.20;;;23.30;99.90;;;;;;5049157;28;20455;-66
2022/08/09 11:22:43;;;;;;;2.47;0.20;;;23.10;99.90;;;;;;5036271;28;20053;-66
2022/08/09 11:25:13;;;;;;;0.30;0.20;;;23.40;99.90;;;;;;5037011;28;20384;-66
2022/08/09 11:27:40;;;;;;;4.35;0.25;;;23.30;99.90;;;;;;5052138;28;20151;-66
2022/08/09 11:30:25;;;;;;;1.52;0.32;;;23.30;99.90;;;;;;5050202;28;20147;-66
2022/08/09 11:33:06;;;;;;;0.73;0.20;;;23.20;99.90;;;;;;5041277;28;20094;-66
2022/08/09 11:35:32;;;;;;;1.25;0.20;;;23.50;99.90;;;;;;5047212;28;20052;-66
2022/08/09 11:38:21;;;;;;;0.80;0.20;;;23.40;99.90;;;;;;5042019;28;20044;-66
2022/08/09 11:40:47;;;;;;;0.52;0.20;;;23.50;99.90;;;;;;5051306;28;20053;-66
2022/08/09 11:43:46;;;;;;;0.73;0.20;;;23.30;99.90;;;;;;5041161;28;20037;-66
2022/08/09 11:46:11;;;;;;;0.63;0.20;;;23.60;99.90;;;;;;5036444;28;20473;-65
2022/08/09 11:48:52;;;;;;;1.23;0.30;;;23.50;99.90;;;;;;5041763;28;20030;-66
2022/08/09 11:51:23;;;;;;;0.65;0.20;;;23.80;99.90;;;;;;5030234;28;20041;-66
2022/08/09 11:54:16;;;;;;;1.38;0.20;;;23.50;99.90;;;;;;5030592;28;20049;-66
2022/08/09 11:56:41;;;;;;;1.70;0.20;;;23.70;99.90;;;;;;5042263;28;20040;-65
2022/08/09 11:59:09;;;;;;;0.43;0.20;;;23.70;99.90;;;;;;5038415;28;20076;-65
2022/08/09 12:01:41;;;;;;;0.30;0.15;;;23.50;99.90;;;;;;5038881;28;20120;-66
2022/08/09 12:04:10;;;;;;;0.65;0.20;;;23.50;99.90;;;;;;5019048;28;20087;-65
2022/08/09 12:06:36;;;;;;;1.27;0.20;;;23.60;99.90;;;;;;5032365;28;20501;-65
2022/08/09 12:09:09;;;;;;;1.00;0.22;;;23.50;99.90;;;;;;5039758;28;20045;-65
2022/08/09 12:11:36;;;;;;;1.55;0.20;;;23.80;99.90;;;;;;5035640;28;20033;-65
2022/08/09 12:14:07;;;;;;;0.50;0.10;;;23.50;99.90;;;;;;5036761;28;20060;-65
2022/08/09 12:16:38;;;;;;;2.08;0.20;;;23.70;99.90;;;;;;5048351;28;20496;-65
2022/08/09 12:19:07;;;;;;;1.90;0.30;;;23.90;99.90;;;;;;5046998;28;20045;-65
2022/08/09 12:21:41;;;;;;;1.13;0.22;;;24.10;99.90;;;;;;5033526;28;20542;-65
2022/08/09 12:24:08;;;;;;;0.82;0.20;;;23.90;99.90;;;;;;5037949;28;20505;-65
2022/08/09 12:26:44;;;;;;;0.93;0.20;;;23.80;99.90;;;;;;5050705;28;20036;-65
2022/08/09 12:29:18;;;;;;;1.50;0.30;;;23.90;99.90;;;;;;5033540;28;20064;-66
2022/08/09 12:31:44;;;;;;;1.23;0.20;;;24.20;99.90;;;;;;5047715;28;20084;-65
2022/08/09 12:34:11;;;;;;;0.70;0.25;;;24.10;99.90;;;;;;5037300;28;20045;-66
2022/08/09 12:36:54;;;;;;;0.65;0.30;;;24.00;99.90;;;;;;5029275;28;20437;-66
2022/08/09 12:39:21;;;;;;;1.75;0.30;;;24.10;99.90;;;;;;5048395;28;20041;-66
2022/08/09 12:41:47;;;;;;;1.88;0.20;;;24.30;99.90;;;;;;5050415;28;20037;-66
2022/08/09 12:44:12;;;;;;;1.02;0.30;;;24.10;99.90;;;;;;5049228;28;20037;-65
2022/08/09 12:46:43;;;;;;;0.43;0.13;;;24.00;99.90;;;;;;5050346;28;20037;-66
2022/08/09 12:49:10;;;;;;;1.40;0.20;;;24.30;99.90;;;;;;5048085;28;20128;-65
2022/08/09 12:51:35;;;;;;;0.50;0.20;;;24.20;99.90;;;;;;5037737;28;20041;-66
2022/08/09 12:54:03;;;;;;;1.30;0.20;;;24.10;99.90;;;;;;5047751;28;20045;-65
2022/08/09 12:56:30;;;;;;;0.47;0.30;;;24.00;99.90;;;;;;5044918;28;20049;-65
2022/08/09 12:59:13;;;;;;;1.77;0.35;;;24.00;99.90;;;;;;5032040;28;20144;-65
2022/08/09 13:01:41;;;;;;;5.72;0.30;;;24.40;99.90;;;;;;5049449;28;20075;-65